Terminal Aerodrome Forecast
Issued by NWS

Home | Current Version | Previous Version | Text Only | Print | Product List | Glossary On
Versions: 1 2 3 4 5 6 7 8 9 10 11 12 13 14 15 16 17 18 19 20 21
000
FTUS42 KFFC 270531
TAFRYY
TAF
KRYY 270531Z 2706/2806 VRB03KT P6SM BKN007
     FM270800 VRB03KT 4SM BR BKN005
     FM271500 17008KT P6SM VCSH BKN015
     FM272000 24007KT 6SM -SHRA BR BKN025 PROB30 2720/2724 3SM -TSRA
      BR BKN012CB
     FM280000 20005KT P6SM VCSH BKN040
      AMD NOT SKED TIL 271200=

USA.gov is the U.S. government's official web portal to all federal, state and local government web resources and services.